Tiempo atmosférico en la estación meteorológica de Marbella, Puerto, Málaga (6 m.)



Fecha
DESCASC
Temp. máxima en grados centígrados (hora)
DESCASC
Temp. mínima en grados centígrados (hora)
DESCASC
Temp. media en grados centígrados
DESCASC
Racha de viento máxima en m/sg (hora)
DESCASC
Velocidad máxima media en intervalos de 10 minutos(hora)
DESCASC
Precipitaciones diarias en mm
DESCASC
Precipitaciones de 00:00 a 06:00 en mm
DESCASC
Precipitaciones de 06:00 a 12:00 en mm
DESCASC
Precipitaciones de 12:00 a 18:00 en mm
DESCASC
Precipitaciones de 18:00 a 24:00 en mm
DESCASC
25-01-2020 15.8 (14:50) 10.2 (23:59) 13 11.94 (12:30) 8.61 (12:50) 3 3 0 0 0
24-01-2020 15.1 (22:00) 11.1 (06:50) 13.1 12.5 (22:10) 8.33 (22:00) 4.4 0 0 0 4.4
23-01-2020 15.2 (14:30) 10.5 (09:10) 12.8 12.22 (08:30) 8.33 (16:10) 22 0.2 16.8 0 5
22-01-2020 13.1 (23:10) 9.7 (00:00) 11.4 10.28 (02:10) 7.78 (01:10) 2.6 0 0 2.6 0
21-01-2020 15.5 (11:00) 9.2 (00:00) 12.3 9.72 (23:30) 7.78 (23:30) 0.4 0 0 0 0.4
20-01-2020 13.1 (00:20) 8.2 (00:00) 10.7 10.28 (04:50) 6.67 (22:40) 1.2 0 0 1.2 0
19-01-2020 17.4 (12:20) 11.5 (00:00) 14.4 16.11 (21:20) 8.61 (21:40) 0 0 0 0 0
18-01-2020 17 (11:50) 11.8 (00:00) 14.4 11.67 (23:00) 8.33 (22:50) 0 0 0 0 0
17-01-2020 18.4 (14:20) 9.3 (00:00) 13.8 5.56 (08:10) 3.89 (08:10) 0 0 0 0 0
16-01-2020 18.4 (11:20) 9.5 (00:00) 13.9 5.56 (05:30) 4.17 (05:30) 0 0 0 0 0
15-01-2020 17.8 (11:00) 9.3 (00:00) 13.5 5 (22:10) 3.61 (05:00) 0 0 0 0 0
14-01-2020 16.5 (17:20) 8.3 (00:00) 12.4 8.33 (14:20) 6.94 (14:30) 0 0 0 0 0
13-01-2020 16.9 (11:10) 8.8 (00:00) 12.8 5.56 (05:30) 3.89 (05:10) 0 0 0 0 0
12-01-2020 17.6 (11:20) 10 (00:00) 13.8 5.28 (08:20) 3.89 (08:20) 0 0 0 0 0
11-01-2020 17.6 (12:00) 10.9 (00:00) 14.3 5.56 (02:30) 3.89 (02:30) 0 0 0 0 0
10-01-2020 17.1 (16:50) 9.4 (00:00) 13.3 8.33 (19:30) 3.89 (17:10) 0 0 0 0 0
09-01-2020 15.9 (12:50) 10.4 (00:00) 13.1 5.56 (03:20) 3.89 (08:10) 0 0 0 0 0
08-01-2020 16 (11:20) 8.3 (00:00) 12.2 5.56 (23:50) 3.61 (07:00) 0 0 0 0 0
07-01-2020 16.4 (11:30) 8.9 (00:00) 12.6 5.28 (03:40) 3.89 (03:40) 0 0 0 0 0
06-01-2020 16.3 (12:00) 9.6 (00:00) 12.9 6.11 (05:10) 5 (14:00) 0 0 0 0 0
05-01-2020 15.1 (17:00) 10.1 (00:00) 12.6 8.06 (00:30) 6.39 (16:30) 0 0 0 0 0
04-01-2020 16.3 (14:50) 10 (00:00) 13.1 8.61 (14:40) 7.22 (14:40) 0 0 0 0 0
03-01-2020 16.6 (11:00) 10.3 (00:00) 13.5 5 (08:10) 3.89 (14:40) 0 0 0 0 0
02-01-2020 17.3 (14:10) 10 (00:00) 13.6 5.28 (01:00) 3.33 (00:30) 0 0 0 0 0
01-01-2020 16.8 (12:10) 10.4 (00:00) 13.6 5.28 (02:10) 3.33 (02:20) 0 0 0 0 0
31-12-2019 15.9 (16:40) 10.1 (00:00) 13 8.33 (12:40) 6.67 (12:50) 0 0 0 0 0
30-12-2019 -- (--) -- (--) -- -- (--) -- (--) -- 0 0 -- 0
29-12-2019 15.7 (17:10) 11.9 (00:00) 13.8 9.17 (11:00) 7.22 (12:20) 0 0 0 0 0
28-12-2019 16.9 (12:20) 10.6 (00:00) 13.8 8.61 (13:50) 6.94 (13:40) 0 0 0 0 0

Gráficas

Temp. máximas Temp. mínimas Temp. medias Precipitaciones Rachas de viento máximas Velocidades máximas media en intervalos de 10 minutos

Datos horarios

Fecha y hora oficial Temperatura (ºC) Velocidad del viento (km/h) Dirección del viento Racha (km/h) Dirección de racha Precipitación (mm) Presión (hPa) Tendencia (hPa) Humedad (%)
2020-01-26 23:00:00 -- -- -- -- -- -- -- -- --
2020-01-26 22:00:00 -- -- -- -- -- -- -- -- --
2020-01-26 21:00:00 -- -- -- -- -- -- -- -- --
2020-01-26 20:00:00 12.4 9 Noroeste 17 Norte 0 -- -- 61
2020-01-26 19:00:00 13.6 8 Noroeste 14 Noroeste 0 -- -- 55
2020-01-26 18:00:00 15.8 6 Norte 15 Noroeste 0 -- -- 46
2020-01-26 17:00:00 17.2 10 Noroeste 18 Norte 0 -- -- 43
2020-01-26 16:00:00 17.3 9 Nordeste 19 Norte 0 -- -- 45
2020-01-26 15:00:00 17.6 7 Norte 26 Sudoeste 0 -- -- 48
2020-01-26 14:00:00 15.1 21 Sudoeste 27 Sudoeste 0 -- -- 67
2020-01-26 13:00:00 14.6 18 Sudoeste 26 Sudoeste 0 -- -- 71
2020-01-26 12:00:00 13.8 11 Sudeste 14 Sudeste 0 -- -- 70
2020-01-26 11:00:00 14.5 3 Norte 8 Nordeste 0 -- -- 68
2020-01-26 10:00:00 13.9 3 Oeste 8 Norte 0 -- -- 72
2020-01-26 09:00:00 10.4 6 Norte 12 Noroeste 0 -- -- 82
2020-01-26 08:00:00 9.9 9 Noroeste 15 Norte 0 -- -- 85
2020-01-26 07:00:00 9.8 9 Noroeste 13 Noroeste 0 -- -- 89
2020-01-26 06:00:00 10 9 Norte 14 Norte 0 -- -- 89
2020-01-26 05:00:00 10.3 10 Norte 15 Norte 0 -- -- 89
2020-01-26 04:00:00 10.5 9 Norte 12 Norte 0 -- -- 89
2020-01-26 03:00:00 10.4 8 Noroeste 15 Noroeste 0 -- -- 89
2020-01-26 02:00:00 9.8 8 Norte 13 Noroeste 0 -- -- 92
2020-01-26 01:00:00 9.9 6 Norte 10 Norte 0 -- -- 93
2020-01-26 00:00:00 10.2 8 Norte 12 Norte 0 -- -- 93
2020-01-25 23:00:00 10.8 2 Noroeste 8 Norte 0 -- -- 94
2020-01-25 22:00:00 11.3 2 Noroeste 6 Noroeste 0 -- -- 94
2020-01-25 21:00:00 11.6 3 Oeste 10 Noroeste 0 -- -- 93
2020-01-25 20:00:00 11.8 4 Noroeste 21 Sudoeste 0 -- -- 92
2020-01-25 19:00:00 11.9 10 Oeste 23 Sudoeste 0 -- -- 90
2020-01-25 18:00:00 11.8 7 Noroeste 32 Sudoeste 0 -- -- 92
2020-01-25 17:00:00 13.2 26 Sudoeste 35 Sudoeste 0 -- -- 85
2020-01-25 16:00:00 13.8 10 Sur 17 Sur 0 -- -- 74
2020-01-25 15:00:00 15.7 2 Este 7 Oeste 0 -- -- 72
2020-01-25 14:00:00 13.7 3 Noroeste 32 Sur 0 -- -- 81
2020-01-25 13:00:00 14 28 Sudoeste 43 Sudoeste 0 -- -- 81
2020-01-25 12:00:00 13.1 22 Este 28 Este 0 -- -- 89
2020-01-25 11:00:00 13 21 Este 30 Este 0 -- -- 89
2020-01-25 10:00:00 14.2 18 Sudoeste 23 Sudoeste 0 -- -- 79
2020-01-25 09:00:00 12.6 5 Norte 13 Norte 0 -- -- 86
2020-01-25 08:00:00 12 8 Noroeste 13 Norte 0 -- -- 91
2020-01-25 07:00:00 11.9 7 Noroeste 10 Norte 0 -- -- 91
2020-01-25 06:00:00 12.2 0 Calma 14 Oeste 0 -- -- 90
2020-01-25 05:00:00 12.3 6 Noroeste 18 Oeste 0 -- -- 92
2020-01-25 04:00:00 12.1 5 Noroeste 28 Este 3 -- -- 94
2020-01-25 03:00:00 12.6 9 Norte 16 Norte 0 -- -- 92
2020-01-25 02:00:00 12.5 4 Norte 12 Oeste 0 -- -- 92
2020-01-25 01:00:00 12.4 6 Norte 11 Noroeste 0 -- -- 92
2020-01-25 00:00:00 12.7 4 Noroeste 8 Noroeste 0 -- -- 92
2020-01-24 23:00:00 12.8 0 Calma 45 Sudoeste 0 -- -- 92
2020-01-24 22:00:00 15.1 30 Sur 44 Sur 0 -- -- 81
2020-01-24 21:00:00 14.3 15 Este 21 Sudeste 0 -- -- 90
2020-01-24 20:00:00 12.7 9 Norte 40 Sudoeste 4.4 -- -- 90
2020-01-24 19:00:00 14.1 13 Sudeste 39 Este 0 -- -- 93
2020-01-24 18:00:00 14.3 23 Este 33 Este 0 -- -- 90
2020-01-24 17:00:00 14.5 24 Este 32 Este 0 -- -- 87
2020-01-24 16:00:00 14.7 23 Este 31 Este 0 -- -- 87
2020-01-24 15:00:00 14.7 24 Este 32 Este 0 -- -- 86
2020-01-24 14:00:00 14.5 23 Este 29 Este 0 -- -- 82
2020-01-24 13:00:00 14.5 22 Este 32 Nordeste 0 -- -- 78
2020-01-24 12:00:00 14.1 23 Nordeste 32 Nordeste 0 -- -- 76
2020-01-24 11:00:00 13.8 19 Nordeste 27 Nordeste 0 -- -- 78
2020-01-24 10:00:00 12.1 9 Norte 14 Nordeste 0 -- -- 87
2020-01-24 09:00:00 11.4 8 Norte 14 Norte 0 -- -- 89
2020-01-24 08:00:00 11.1 9 Norte 16 Norte 0 -- -- 90
2020-01-24 07:00:00 11.1 7 Norte 12 Norte 0 -- -- 91
2020-01-24 06:00:00 11.2 8 Norte 13 Norte 0 -- -- 92
2020-01-24 05:00:00 11.9 8 Nordeste 13 Nordeste 0 -- -- 91
2020-01-24 04:00:00 11.5 8 Norte 15 Norte 0 -- -- 93
2020-01-24 03:00:00 11.3 4 Norte 12 Norte 0 -- -- 93
2020-01-24 02:00:00 11.4 5 Norte 14 Norte 0 -- -- 94
2020-01-24 01:00:00 11.4 8 Norte 12 Norte 0 -- -- 94
2020-01-24 00:00:00 11.9 4 Norte 6 Norte 0 -- -- 93
2020-01-23 23:00:00 11.8 5 Norte 10 Oeste 1.2 -- -- 92
2020-01-23 22:00:00 12.4 3 Nordeste 21 Norte 0 -- -- 87
2020-01-23 21:00:00 12 9 Norte 31 Sudeste 3.8 -- -- 91
2020-01-23 20:00:00 14.7 23 Este 35 Sudeste 0 -- -- 89
2020-01-23 19:00:00 14.5 26 Sudeste 34 Este 0 -- -- 90
2020-01-23 18:00:00 14.7 27 Este 36 Sudeste 0 -- -- 88
2020-01-23 17:00:00 14.8 28 Este 39 Este 0 -- -- 88
2020-01-23 16:00:00 14.7 29 Este 38 Este 0 -- -- 89
2020-01-23 15:00:00 15.1 21 Sudeste 31 Sudeste 0 -- -- 83
2020-01-23 14:00:00 14.9 12 Nordeste 15 Nordeste 0 -- -- 82
2020-01-23 13:00:00 14.1 9 Norte 14 Norte 0 -- -- 84
2020-01-23 12:00:00 13.8 8 Norte 17 Norte 0 -- -- 83
2020-01-23 11:00:00 12 8 Noroeste 17 Norte 0 -- -- 86
2020-01-23 10:00:00 11.6 13 Norte 19 Norte 0 -- -- 86
2020-01-23 09:00:00 10.7 13 Norte 44 Sur 3.6 -- -- 91
2020-01-23 08:00:00 12.6 5 Nordeste 31 Nordeste 10.8 -- -- 84
2020-01-23 07:00:00 11.3 5 Norte 12 Norte 2.4 -- -- 92
2020-01-23 06:00:00 11.3 5 Norte 14 Norte 0 -- -- 91
2020-01-23 05:00:00 11 10 Norte 17 Oeste 0 -- -- 92
2020-01-23 04:00:00 11.3 7 Oeste 17 Norte 0 -- -- 89
2020-01-23 03:00:00 11.2 12 Norte 18 Norte 0 -- -- 86
2020-01-23 02:00:00 11.2 7 Norte 14 Noroeste 0.2 -- -- 90
2020-01-23 01:00:00 11.6 8 Norte 13 Nordeste 0 -- -- 87
2020-01-23 00:00:00 12.4 8 Nordeste 20 Este 0 -- -- 82
2020-01-22 23:00:00 13 15 Este 23 Este 0 -- -- 78
2020-01-22 22:00:00 12.3 11 Nordeste 26 Este 0 -- -- 88
2020-01-22 21:00:00 12.5 18 Este 23 Este 0 -- -- 86
2020-01-22 20:00:00 11.8 9 Norte 15 Norte 0 -- -- 79
2020-01-22 19:00:00 12.1 10 Norte 20 Nordeste 0 -- -- 78
2020-01-22 18:00:00 12 5 Norte 14 Nordeste 0 -- -- 78
2020-01-22 17:00:00 12.4 7 Norte 12 Noroeste 0 -- -- 79
2020-01-22 16:00:00 12 6 Norte 13 Noroeste 0 -- -- 80
2020-01-22 15:00:00 11.9 9 Nordeste 13 Nordeste 0 -- -- 86
2020-01-22 14:00:00 10.9 4 Noroeste 13 Norte 2.6 -- -- 89
2020-01-22 13:00:00 11.1 9 Norte 12 Noroeste 0 -- -- 85
2020-01-22 12:00:00 11.2 9 Oeste 22 Noroeste 0 -- -- 83
2020-01-22 11:00:00 12 10 Norte 22 Norte 0 -- -- 75
2020-01-22 10:00:00 11.1 6 Norte 25 Noroeste 0 -- -- 82
2020-01-22 09:00:00 11.3 10 Nordeste 17 Norte 0 -- -- 79
2020-01-22 08:00:00 10.1 10 Norte 17 Norte 0 -- -- 85
2020-01-22 07:00:00 9.9 8 Norte 17 Norte 0 -- -- 86
2020-01-22 06:00:00 10 9 Norte 16 Noroeste 0 -- -- 87
2020-01-22 05:00:00 10 7 Noroeste 30 Nordeste 0 -- -- 85
2020-01-22 04:00:00 11.3 18 Nordeste 35 Nordeste 0 -- -- 82
2020-01-22 03:00:00 11.1 25 Nordeste 37 Este 0 -- -- 89
2020-01-22 02:00:00 11.3 25 Este 33 Nordeste 0 -- -- 89
2020-01-22 01:00:00 11.1 27 Nordeste 33 Este 0 -- -- 88
2020-01-22 00:00:00 11 25 Nordeste 35 Este 0 -- -- 89
2020-01-21 23:00:00 11 9 Nordeste 17 Nordeste 0.2 -- -- 88
2020-01-21 22:00:00 10.8 6 Norte 26 Este 0 -- -- 87
2020-01-21 21:00:00 11.6 23 Este 30 Este 0.2 -- -- 86
2020-01-21 20:00:00 12.6 6 Nordeste 21 Este 0 -- -- 77
2020-01-21 19:00:00 12.5 17 Este 21 Este 0 -- -- 80
2020-01-21 18:00:00 12.6 13 Nordeste 22 Este 0 -- -- 79
2020-01-21 17:00:00 13 16 Este 21 Este 0 -- -- 75
2020-01-21 16:00:00 13.4 9 Este 14 Este 0 -- -- 66
2020-01-21 15:00:00 14 9 Este 13 Este 0 -- -- 61
2020-01-21 14:00:00 13.3 6 Sudeste 13 Este 0 -- -- 60
2020-01-21 13:00:00 13.9 11 Este 17 Este 0 -- -- 56
2020-01-21 12:00:00 13 6 Nordeste 12 Norte 0 -- -- 63
2020-01-21 11:00:00 15.5 0 Calma 11 Noroeste 0 -- -- 51
2020-01-21 10:00:00 13.1 3 Noroeste 14 Norte 0 -- -- 59
2020-01-21 09:00:00 9.7 7 Norte 15 Noroeste 0 -- -- 72
2020-01-21 08:00:00 10.3 7 Noroeste 14 Noroeste 0 -- -- 68
2020-01-21 07:00:00 10.2 8 Noroeste 14 Noroeste 0 -- -- 67
2020-01-21 06:00:00 9.8 9 Norte 16 Noroeste 0 -- -- 71
2020-01-21 05:00:00 9.7 10 Norte 18 Norte 0 -- -- 72
2020-01-21 04:00:00 9.9 8 Norte 19 Norte 0 -- -- 71
2020-01-21 03:00:00 9.4 11 Norte 18 Norte 0 -- -- 75
2020-01-21 02:00:00 9.5 6 Noroeste 13 Norte 0 -- -- 78
2020-01-21 01:00:00 9.5 9 Norte 14 Norte 0 -- -- 85
2020-01-21 00:00:00 10.3 5 Norte 26 Nordeste 0 -- -- 80
2020-01-20 23:00:00 10.8 16 Este 29 Nordeste 0 -- -- 78
2020-01-20 22:00:00 12.1 15 Nordeste 26 Nordeste 0 -- -- 68
2020-01-20 21:00:00 11.7 8 Norte 19 Norte 0 -- -- 63
2020-01-20 20:00:00 11.4 11 Norte 17 Norte 0 -- -- 66
2020-01-20 19:00:00 10.1 9 Noroeste 16 Norte 0 -- -- 72
2020-01-20 18:00:00 9.7 8 Noroeste 17 Noroeste 0 -- -- 75
2020-01-20 17:00:00 9.5 7 Norte 21 Norte 0 -- -- 83
2020-01-20 16:00:00 8.5 8 Norte 21 Norte 0 -- -- 82
2020-01-20 15:00:00 8.2 13 Norte 27 Norte 0.2 -- -- 82
2020-01-20 14:00:00 10.1 2 Noroeste 13 Nordeste 0.8 -- -- 73
2020-01-20 13:00:00 10.9 2 Este 10 Norte 0.2 -- -- 65
2020-01-20 12:00:00 11.7 6 Noroeste 12 Noroeste 0 -- -- 54
2020-01-20 11:00:00 11 11 Noroeste 27 Norte 0 -- -- 50
2020-01-20 10:00:00 10.6 11 Norte 31 Norte 0 -- -- 52
2020-01-20 09:00:00 9.9 15 Norte 32 Norte 0 -- -- 54
2020-01-20 08:00:00 10.1 12 Norte 27 Norte 0 -- -- 54
2020-01-20 07:00:00 10.4 11 Norte 30 Norte 0 -- -- 54
2020-01-20 06:00:00 11 12 Noroeste 33 Noroeste 0 -- -- 50
2020-01-20 05:00:00 10.8 16 Norte 37 Norte 0 -- -- 53
2020-01-20 04:00:00 10.9 9 Norte 26 Noroeste 0 -- -- 55
2020-01-20 03:00:00 11.2 12 Norte 27 Noroeste 0 -- -- 53
2020-01-20 02:00:00 11.8 7 Norte 35 Este 0 -- -- 52
2020-01-20 01:00:00 12.8 19 Nordeste 31 Nordeste 0 -- -- 55
2020-01-20 00:00:00 12.8 12 Norte 34 Noroeste 0 -- -- 51
2020-01-19 23:00:00 11.5 18 Noroeste 56 Norte 0 -- -- 57
2020-01-19 22:00:00 11.8 26 Norte 58 Norte 0 -- -- 58
2020-01-19 21:00:00 12.5 10 Noroeste 41 Norte 0 -- -- 54
2020-01-19 20:00:00 12.7 7 Noroeste 31 Norte 0 -- -- 55
2020-01-19 19:00:00 12.4 15 Norte 47 Norte 0 -- -- 60
2020-01-19 18:00:00 13.8 16 Norte 45 Norte 0 -- -- 57
2020-01-19 17:00:00 15.2 14 Norte 39 Norte 0 -- -- 46
2020-01-19 16:00:00 14.8 19 Norte 38 Norte 0 -- -- 52
2020-01-19 15:00:00 15.7 13 Norte 31 Norte 0 -- -- 50
2020-01-19 14:00:00 14.9 15 Sur 18 Sur 0 -- -- 56
2020-01-19 13:00:00 15.6 8 Sudeste 19 Sudeste 0 -- -- 55
2020-01-19 12:00:00 16.6 9 Este 34 Norte 0 -- -- 51
2020-01-19 11:00:00 16.4 15 Oeste 32 Oeste 0 -- -- 54
2020-01-19 10:00:00 14.9 17 Oeste 37 Oeste 0 -- -- 56
2020-01-19 09:00:00 13.3 13 Noroeste 37 Noroeste 0 -- -- 58
2020-01-19 08:00:00 13.7 6 Norte 22 Noroeste 0 -- -- 57
2020-01-19 07:00:00 14.2 9 Noroeste 23 Oeste 0 -- -- 57
2020-01-19 06:00:00 14.3 11 Noroeste 31 Oeste 0 -- -- 55
2020-01-19 05:00:00 14.7 8 Noroeste 32 Oeste 0 -- -- 54
2020-01-19 04:00:00 15.2 17 Oeste 41 Noroeste 0 -- -- 57
2020-01-19 03:00:00 16.3 23 Noroeste 37 Noroeste 0 -- -- 66
2020-01-19 02:00:00 15.6 9 Nordeste 28 Oeste 0 -- -- 92
2020-01-19 01:00:00 16.3 10 Sudoeste 23 Sur 0 -- -- 88
2020-01-19 00:00:00 16 10 Sudoeste 39 Sudoeste 0 -- -- 93
2020-01-18 23:00:00 15.8 30 Sudoeste 42 Sudoeste 0 -- -- 95
2020-01-18 22:00:00 15.3 18 Oeste 26 Oeste 0 -- -- 95
2020-01-18 21:00:00 15.2 16 Oeste 26 Sudoeste 0 -- -- 94
2020-01-18 20:00:00 15.2 13 Sudoeste 28 Oeste 0 -- -- 93
2020-01-18 19:00:00 15.9 18 Oeste 26 Oeste 0 -- -- 86
2020-01-18 18:00:00 15.6 0 Calma 8 Nordeste 0 -- -- 83
2020-01-18 17:00:00 16 5 Nordeste 9 Nordeste 0 -- -- 80
2020-01-18 16:00:00 15.8 0 Calma 8 Sudeste 0 -- -- 78
2020-01-18 15:00:00 16.1 6 Este 8 Este 0 -- -- 80
2020-01-18 14:00:00 16.7 2 Sur 5 Sudoeste 0 -- -- 67
2020-01-18 13:00:00 15.3 4 Sudoeste 5 Sudoeste 0 -- -- 74
2020-01-18 12:00:00 17 0 Calma 10 Norte 0 -- -- 64
2020-01-18 11:00:00 13.9 8 Noroeste 13 Noroeste 0 -- -- 67
2020-01-18 10:00:00 12.8 11 Noroeste 14 Norte 0 -- -- 64
2020-01-18 09:00:00 12.1 9 Norte 15 Norte 0 -- -- 64
2020-01-18 08:00:00 11.8 10 Norte 14 Norte 0 -- -- 66
2020-01-18 07:00:00 12.3 11 Noroeste 14 Norte 0 -- -- 63
2020-01-18 06:00:00 12.1 9 Norte 17 Norte 0 -- -- 68
2020-01-18 05:00:00 12.7 9 Norte 14 Norte 0 -- -- 64
2020-01-18 04:00:00 12.7 11 Norte 17 Norte 0 -- -- 66
2020-01-18 03:00:00 12.8 2 Norte 14 Noroeste 0 -- -- 71
2020-01-18 02:00:00 13.6 10 Norte 17 Noroeste 0 -- -- 67
2020-01-18 01:00:00 12.4 3 Oeste 6 Noroeste 0 -- -- 77
2020-01-18 00:00:00 12.6 0 Calma 7 Noroeste 0 -- -- 75
2020-01-17 23:00:00 13.6 4 Noroeste 12 Noroeste 0 -- -- 70
2020-01-17 22:00:00 13.8 2 Sudoeste 12 Noroeste 0 -- -- 73
2020-01-17 21:00:00 13.7 5 Norte 12 Noroeste 0 -- -- 71
2020-01-17 20:00:00 14 3 Noroeste 6 Noroeste 0 -- -- 79
2020-01-17 19:00:00 15.6 6 Norte 9 Nordeste 0 -- -- 83
2020-01-17 18:00:00 16.3 4 Norte 8 Nordeste 0 -- -- 79
2020-01-17 17:00:00 16.5 6 Nordeste 9 Nordeste 0 -- -- 75
2020-01-17 16:00:00 17.2 3 Este 6 Nordeste 0 -- -- 72
2020-01-17 15:00:00 17.9 5 Nordeste 8 Nordeste 0 -- -- 59
2020-01-17 14:00:00 17.4 7 Este 9 Este 0 -- -- 58
2020-01-17 13:00:00 16.9 5 Nordeste 8 Este 0 -- -- 63
2020-01-17 12:00:00 16.1 4 Sur 10 Oeste 0 -- -- 58
2020-01-17 11:00:00 15.4 4 Oeste 9 Norte 0 -- -- 51
2020-01-17 10:00:00 12.6 5 Noroeste 18 Norte 0 -- -- 54
2020-01-17 09:00:00 11.1 13 Norte 20 Norte 0 -- -- 57
2020-01-17 08:00:00 9.8 9 Norte 17 Norte 0 -- -- 64
2020-01-17 07:00:00 10.3 9 Noroeste 16 Norte 0 -- -- 61
2020-01-17 06:00:00 9.8 9 Norte 13 Noroeste 0 -- -- 65
2020-01-17 05:00:00 10 10 Noroeste 14 Noroeste 0 -- -- 64
2020-01-17 04:00:00 10 10 Norte 15 Noroeste 0 -- -- 66
2020-01-17 03:00:00 10.6 11 Noroeste 19 Norte 0 -- -- 65
2020-01-17 02:00:00 10.6 10 Norte 15 Norte 0 -- -- 69
2020-01-17 01:00:00 10.7 10 Norte 15 Norte 0 -- -- 74
2020-01-17 00:00:00 11 9 Noroeste 14 Norte 0 -- -- 76
2020-01-16 23:00:00 11 10 Norte 15 Noroeste 0 -- -- 81
2020-01-16 22:00:00 11.3 9 Norte 14 Noroeste 0 -- -- 84
2020-01-16 21:00:00 12 5 Noroeste 9 Noroeste 0 -- -- 85
2020-01-16 20:00:00 12.8 4 Norte 8 Oeste 0 -- -- 85
2020-01-16 19:00:00 14.5 6 Oeste 9 Sudoeste 0 -- -- 84
2020-01-16 18:00:00 15.7 4 Sudoeste 6 Sudoeste 0 -- -- 76
2020-01-16 17:00:00 16.1 4 Sur 6 Sur 0 -- -- 70
2020-01-16 16:00:00 16 5 Sur 8 Sudeste 0 -- -- 72
2020-01-16 15:00:00 16.4 4 Sudeste 7 Sur 0 -- -- 73
2020-01-16 14:00:00 16.1 4 Sur 6 Sur 0 -- -- 73
2020-01-16 13:00:00 16.1 5 Sudeste 6 Sudeste 0 -- -- 71
2020-01-16 12:00:00 16.6 3 Sur 4 Sur 0 -- -- 67
2020-01-16 11:00:00 18.3 0 Calma 11 Norte 0 -- -- 53
2020-01-16 10:00:00 13.3 9 Norte 17 Noroeste 0 -- -- 60
2020-01-16 09:00:00 10.4 14 Norte 19 Norte 0 -- -- 67
2020-01-16 08:00:00 9.8 13 Noroeste 18 Norte 0 -- -- 71
2020-01-16 07:00:00 9.7 13 Norte 19 Noroeste 0 -- -- 72
2020-01-16 06:00:00 9.6 14 Norte 20 Norte 0 -- -- 72
2020-01-16 05:00:00 9.9 12 Norte 17 Noroeste 0 -- -- 72
2020-01-16 04:00:00 9.9 12 Norte 18 Norte 0 -- -- 73
2020-01-16 03:00:00 10 11 Norte 17 Norte 0 -- -- 72
2020-01-16 02:00:00 10.4 11 Norte 19 Noroeste 0 -- -- 70
2020-01-16 01:00:00 10.7 13 Norte 17 Norte 0 -- -- 70
2020-01-16 00:00:00 11 10 Noroeste 14 Noroeste 0 -- -- 74
2020-01-15 23:00:00 11.9 5 Norte 18 Norte 0 -- -- 71
2020-01-15 22:00:00 12 9 Norte 14 Norte 0 -- -- 70
2020-01-15 21:00:00 12.9 2 Norte 8 Oeste 0 -- -- 78
2020-01-15 20:00:00 13.1 0 Calma 7 Norte 0 -- -- 80
2020-01-15 19:00:00 14.5 4 Oeste 6 Oeste 0 -- -- 77
2020-01-15 18:00:00 16.2 0 Calma 5 Sur 0 -- -- 73
2020-01-15 17:00:00 17 2 Sur 6 Sudoeste 0 -- -- 68
2020-01-15 16:00:00 17.1 6 Sudoeste 10 Sur 0 -- -- 66
2020-01-15 15:00:00 16.4 5 Sur 7 Sur 0 -- -- 64
2020-01-15 14:00:00 16.7 3 Este 6 Nordeste 0 -- -- 63
2020-01-15 13:00:00 17.2 0 Calma 6 Sudeste 0 -- -- 59
2020-01-15 12:00:00 16.2 4 Sudoeste 5 Sudoeste 0 -- -- 54
2020-01-15 11:00:00 17.8 0 Calma 11 Noroeste 0 -- -- 49
2020-01-15 10:00:00 12.5 8 Noroeste 13 Noroeste 0 -- -- 61
2020-01-15 09:00:00 9.4 9 Noroeste 14 Noroeste 0 -- -- 71
2020-01-15 08:00:00 9.3 10 Norte 16 Norte 0 -- -- 72
2020-01-15 07:00:00 9.5 10 Norte 14 Norte 0 -- -- 72
2020-01-15 06:00:00 9.5 8 Norte 15 Norte 0 -- -- 72
2020-01-15 05:00:00 10.1 13 Norte 18 Norte 0 -- -- 70
2020-01-15 04:00:00 10.2 12 Norte 17 Norte 0 -- -- 71
2020-01-15 03:00:00 10.2 11 Norte 15 Norte 0 -- -- 72
2020-01-15 02:00:00 10.8 2 Noroeste 13 Noroeste 0 -- -- 70
2020-01-15 01:00:00 10.9 4 Noroeste 12 Norte 0 -- -- 70
2020-01-15 00:00:00 11.5 7 Norte 19 Norte 0 -- -- 67
2020-01-14 23:00:00 11.7 14 Norte 21 Norte 0 -- -- 67
2020-01-14 22:00:00 12.2 5 Norte 14 Norte 0 -- -- 67
2020-01-14 21:00:00 12.6 10 Norte 17 Noroeste 0 -- -- 68
2020-01-14 20:00:00 12.6 12 Norte 17 Noroeste 0 -- -- 70
2020-01-14 19:00:00 14.5 10 Norte 20 Nordeste 0 -- -- 61
2020-01-14 18:00:00 15.7 10 Este 15 Este 0 -- -- 64
2020-01-14 17:00:00 15.7 10 Sur 14 Sudoeste 0 -- -- 59
2020-01-14 16:00:00 15.6 10 Sur 24 Sur 0 -- -- 66
2020-01-14 15:00:00 14.8 22 Sudoeste 30 Sudoeste 0 -- -- 75
2020-01-14 14:00:00 14.8 23 Sudoeste 28 Sudoeste 0 -- -- 70
2020-01-14 13:00:00 14.7 14 Sudoeste 17 Sudoeste 0 -- -- 67
2020-01-14 12:00:00 13.5 7 Sudoeste 9 Sudoeste 0 -- -- 65
2020-01-14 11:00:00 11.7 6 Norte 12 Norte 0 -- -- 68
2020-01-14 10:00:00 11 9 Noroeste 17 Norte 0 -- -- 66
2020-01-14 09:00:00 9.2 10 Norte 18 Norte 0 -- -- 70
2020-01-14 08:00:00 8.3 12 Norte 18 Norte 0 -- -- 75
2020-01-14 07:00:00 8.4 11 Norte 16 Norte 0 -- -- 76
2020-01-14 06:00:00 8.4 12 Norte 16 Norte 0 -- -- 78
2020-01-14 05:00:00 8.7 10 Norte 17 Norte 0 -- -- 77
2020-01-14 04:00:00 8.8 12 Norte 18 Norte 0 -- -- 80
2020-01-14 03:00:00 9 12 Norte 18 Norte 0 -- -- 81
2020-01-14 02:00:00 9.5 10 Norte 16 Noroeste 0 -- -- 81
2020-01-14 01:00:00 9.9 9 Noroeste 13 Noroeste 0 -- -- 81
2020-01-14 00:00:00 10.6 8 Noroeste 13 Norte 0 -- -- 80
2020-01-13 23:00:00 10.4 9 Norte 13 Norte 0 -- -- 83
2020-01-13 22:00:00 10.8 8 Norte 15 Norte 0 -- -- 82
2020-01-13 21:00:00 11.1 9 Norte 14 Norte 0 -- -- 81
2020-01-13 20:00:00 11.7 7 Norte 13 Noroeste 0 -- -- 80
2020-01-13 19:00:00 13.2 5 Oeste 9 Sudoeste 0 -- -- 73
2020-01-13 18:00:00 14.2 5 Sur 9 Sur 0 -- -- 70
2020-01-13 17:00:00 14.9 6 Sur 10 Sudeste 0 -- -- 68
2020-01-13 16:00:00 14.9 7 Sudeste 11 Sudeste 0 -- -- 69
2020-01-13 15:00:00 15 8 Sudeste 13 Sudeste 0 -- -- 69
2020-01-13 14:00:00 14.5 9 Sudeste 12 Sudeste 0 -- -- 67
2020-01-13 13:00:00 15 6 Sudeste 9 Sudeste 0 -- -- 67
2020-01-13 12:00:00 15.5 4 Sudeste 9 Este 0 -- -- 65
2020-01-13 11:00:00 15.4 3 Norte 16 Norte 0 -- -- 61
2020-01-13 10:00:00 11.7 11 Norte 20 Noroeste 0 -- -- 69
2020-01-13 09:00:00 9.3 14 Norte 20 Norte 0 -- -- 75
2020-01-13 08:00:00 9.1 14 Norte 19 Norte 0 -- -- 77
2020-01-13 07:00:00 9.4 13 Norte 20 Noroeste 0 -- -- 77
2020-01-13 06:00:00 9.2 13 Norte 20 Norte 0 -- -- 80
2020-01-13 05:00:00 9 13 Norte 19 Norte 0 -- -- 81
2020-01-13 04:00:00 9.2 13 Norte 19 Norte 0 -- -- 80
2020-01-13 03:00:00 9.4 12 Norte 18 Noroeste 0 -- -- 80
2020-01-13 02:00:00 9.9 11 Norte 18 Norte 0 -- -- 81
2020-01-13 01:00:00 10.3 11 Norte 17 Norte 0 -- -- 81
2020-01-13 00:00:00 10.2 12 Norte 18 Norte 0 -- -- 83
2020-01-12 23:00:00 10.5 12 Norte 17 Norte 0 -- -- 83
2020-01-12 22:00:00 10.7 12 Norte 17 Norte 0 -- -- 83
2020-01-12 21:00:00 11.3 10 Norte 14 Norte 0 -- -- 83
2020-01-12 20:00:00 11.9 9 Norte 13 Norte 0 -- -- 82
2020-01-12 19:00:00 13.7 2 Oeste 10 Sudoeste 0 -- -- 77
2020-01-12 18:00:00 14.8 6 Sudoeste 8 Sudoeste 0 -- -- 73
2020-01-12 17:00:00 15.1 6 Sur 9 Sur 0 -- -- 72
2020-01-12 16:00:00 15.3 6 Sur 10 Sur 0 -- -- 71
2020-01-12 15:00:00 15.1 8 Sur 11 Sur 0 -- -- 72
2020-01-12 14:00:00 15.1 8 Sur 10 Sur 0 -- -- 70
2020-01-12 13:00:00 15.3 6 Sudeste 9 Sudeste 0 -- -- 70
2020-01-12 12:00:00 16.2 3 Sudeste 4 Sudeste 0 -- -- 64
2020-01-12 11:00:00 15.4 4 Norte 12 Noroeste 0 -- -- 61
2020-01-12 10:00:00 12.6 9 Norte 18 Norte 0 -- -- 70
2020-01-12 09:00:00 10.3 13 Norte 19 Norte 0 -- -- 77
2020-01-12 08:00:00 10.1 13 Norte 18 Norte 0 -- -- 78
2020-01-12 07:00:00 10.5 12 Norte 17 Norte 0 -- -- 78
2020-01-12 06:00:00 10.7 12 Norte 18 Norte 0 -- -- 78
2020-01-12 05:00:00 10.9 12 Norte 15 Norte 0 -- -- 77
2020-01-12 04:00:00 11.4 9 Norte 14 Noroeste 0 -- -- 77
2020-01-12 03:00:00 11.7 10 Norte 14 Norte 0 -- -- 75
2020-01-12 02:00:00 11.6 10 Norte 15 Norte 0 -- -- 74
2020-01-12 01:00:00 11.4 10 Norte 16 Norte 0 -- -- 75
2020-01-12 00:00:00 11.4 11 Norte 18 Norte 0 -- -- 74
2020-01-11 23:00:00 11.2 11 Norte 18 Norte 0 -- -- 75
2020-01-11 22:00:00 11.2 11 Norte 17 Norte 0 -- -- 76
2020-01-11 21:00:00 11.6 12 Norte 16 Noroeste 0 -- -- 74
2020-01-11 20:00:00 12.2 11 Norte 15 Norte 0 -- -- 73
2020-01-11 19:00:00 14.4 7 Este 13 Este 0 -- -- 69
2020-01-11 18:00:00 15.3 4 Sudeste 8 Sudeste 0 -- -- 63
2020-01-11 17:00:00 16.3 4 Sudoeste 6 Sudoeste 0 -- -- 58
2020-01-11 16:00:00 16.5 5 Sudoeste 7 Sur 0 -- -- 66
2020-01-11 15:00:00 16.4 4 Sur 7 Sur 0 -- -- 65
2020-01-11 14:00:00 16 5 Sur 8 Sur 0 -- -- 68
2020-01-11 13:00:00 16.1 5 Sudeste 8 Sudeste 0 -- -- 66
2020-01-11 12:00:00 17.6 3 Este 8 Noroeste 0 -- -- 62
2020-01-11 11:00:00 15.3 7 Norte 16 Norte 0 -- -- 61
2020-01-11 10:00:00 12.1 12 Norte 18 Norte 0 -- -- 69
2020-01-11 09:00:00 11.1 12 Norte 18 Norte 0 -- -- 70
2020-01-11 08:00:00 10.9 12 Norte 18 Norte 0 -- -- 70
2020-01-11 07:00:00 11.3 10 Norte 18 Noroeste 0 -- -- 68
2020-01-11 06:00:00 11.4 10 Norte 17 Norte 0 -- -- 64
2020-01-11 05:00:00 12.2 12 Norte 19 Norte 0 -- -- 58
2020-01-11 04:00:00 12.2 12 Norte 18 Norte 0 -- -- 54
2020-01-11 03:00:00 12.3 8 Norte 20 Noroeste 0 -- -- 54
2020-01-11 02:00:00 11.7 10 Noroeste 16 Noroeste 0 -- -- 54
2020-01-11 01:00:00 13.1 4 Norte 10 Noroeste 0 -- -- 52
2020-01-11 00:00:00 13.5 6 Norte 13 Norte 0 -- -- 50
2020-01-10 23:00:00 14.4 8 Norte 21 Norte 0 -- -- 45
2020-01-10 22:00:00 15.1 6 Noroeste 24 Norte 0 -- -- 43
2020-01-10 21:00:00 15.3 11 Noroeste 22 Noroeste 0 -- -- 43
2020-01-10 20:00:00 15.5 9 Nordeste 30 Norte 0 -- -- 46
2020-01-10 19:00:00 15.6 12 Norte 18 Norte 0 -- -- 51
2020-01-10 18:00:00 15.3 6 Norte 19 Sudeste 0 -- -- 56
2020-01-10 17:00:00 16 10 Sudeste 15 Sudeste 0 -- -- 71
2020-01-10 16:00:00 15.6 8 Sudeste 12 Sur 0 -- -- 72
2020-01-10 15:00:00 16.2 6 Sur 9 Sur 0 -- -- 66
2020-01-10 14:00:00 15.4 8 Sur 10 Sur 0 -- -- 65
2020-01-10 13:00:00 15.2 8 Sur 12 Sudoeste 0 -- -- 73
2020-01-10 12:00:00 14.9 7 Sudoeste 9 Sudoeste 0 -- -- 69
2020-01-10 11:00:00 15 4 Sudoeste 7 Noroeste 0 -- -- 67
2020-01-10 10:00:00 13.7 4 Norte 10 Noroeste 0 -- -- 68
2020-01-10 09:00:00 11.4 0 Calma 16 Norte 0 -- -- 78
2020-01-10 08:00:00 10.5 6 Noroeste 12 Nordeste 0 -- -- 80
2020-01-10 07:00:00 10.1 10 Noroeste 17 Norte 0 -- -- 80
2020-01-10 06:00:00 9.5 12 Norte 17 Norte 0 -- -- 81
2020-01-10 05:00:00 9.5 8 Norte 14 Noroeste 0 -- -- 81
2020-01-10 04:00:00 10.4 9 Noroeste 21 Norte 0 -- -- 78
2020-01-10 03:00:00 10.4 12 Norte 17 Norte 0 -- -- 80
2020-01-10 02:00:00 10.4 11 Norte 17 Norte 0 -- -- 81
2020-01-10 01:00:00 10.5 12 Norte 19 Norte 0 -- -- 83
2020-01-10 00:00:00 10.7 13 Norte 17 Norte 0 -- -- 84
2020-01-09 23:00:00 10.8 10 Norte 17 Norte 0 -- -- 86
2020-01-09 22:00:00 11.2 8 Norte 14 Norte 0 -- -- 86
2020-01-09 21:00:00 12.1 8 Norte 11 Norte 0 -- -- 84
2020-01-09 20:00:00 13.4 0 Calma 7 Noroeste 0 -- -- 80
2020-01-09 19:00:00 13.9 0 Calma 7 Sudoeste 0 -- -- 78
2020-01-09 18:00:00 14.5 3 Oeste 5 Sudoeste 0 -- -- 76
2020-01-09 17:00:00 14.6 3 Sudeste 8 Este 0 -- -- 74
2020-01-09 16:00:00 14.9 5 Este 12 Este 0 -- -- 75
2020-01-09 15:00:00 14.7 10 Sudeste 14 Este 0 -- -- 77
2020-01-09 14:00:00 15.1 8 Sudeste 11 Sudeste 0 -- -- 75
2020-01-09 13:00:00 15.9 6 Este 13 Este 0 -- -- 73
2020-01-09 12:00:00 14.6 10 Nordeste 14 Este 0 -- -- 76
2020-01-09 11:00:00 13 7 Norte 14 Norte 0 -- -- 74
2020-01-09 10:00:00 12 10 Norte 18 Norte 0 -- -- 75
2020-01-09 09:00:00 11.2 12 Norte 19 Norte 0 -- -- 76
2020-01-09 08:00:00 10.8 13 Norte 19 Norte 0 -- -- 78
2020-01-09 07:00:00 10.6 12 Norte 18 Norte 0 -- -- 79
2020-01-09 06:00:00 10.4 12 Norte 18 Noroeste 0 -- -- 81
2020-01-09 05:00:00 10.8 12 Norte 18 Norte 0 -- -- 80
2020-01-09 04:00:00 11.3 13 Norte 20 Norte 0 -- -- 80
2020-01-09 03:00:00 11.7 12 Norte 19 Norte 0 -- -- 80
2020-01-09 02:00:00 11.9 12 Norte 16 Norte 0 -- -- 81
2020-01-09 01:00:00 11.8 10 Norte 15 Noroeste 0 -- -- 84
2020-01-09 00:00:00 11.6 11 Norte 20 Norte 0 -- -- 86
2020-01-08 23:00:00 12.5 6 Norte 12 Nordeste 0 -- -- 87
2020-01-08 22:00:00 13.1 6 Nordeste 12 Este 0 -- -- 85
2020-01-08 21:00:00 12.5 4 Norte 10 Norte 0 -- -- 87
2020-01-08 20:00:00 12.5 8 Norte 13 Este 0 -- -- 87
2020-01-08 19:00:00 14 8 Este 12 Este 0 -- -- 83
2020-01-08 18:00:00 14.7 5 Este 7 Este 0 -- -- 80
2020-01-08 17:00:00 15.2 4 Sudeste 6 Sur 0 -- -- 76
2020-01-08 16:00:00 15.4 4 Sudeste 6 Sudeste 0 -- -- 75
2020-01-08 15:00:00 15.3 4 Sudeste 8 Sudeste 0 -- -- 74
2020-01-08 14:00:00 15.2 5 Sudeste 9 Sudeste 0 -- -- 75
2020-01-08 13:00:00 14.6 5 Sudeste 9 Sudeste 0 -- -- 77
2020-01-08 12:00:00 14.8 5 Sudeste 9 Este 0 -- -- 78
2020-01-08 11:00:00 15.1 2 Norte 12 Noroeste 0 -- -- 68
2020-01-08 10:00:00 11.5 8 Norte 15 Noroeste 0 -- -- 71
2020-01-08 09:00:00 8.8 9 Norte 15 Noroeste 0 -- -- 80
2020-01-08 08:00:00 8.4 11 Noroeste 16 Noroeste 0 -- -- 79
2020-01-08 07:00:00 8.7 13 Noroeste 15 Noroeste 0 -- -- 81
2020-01-08 06:00:00 8.7 11 Noroeste 16 Norte 0 -- -- 80
2020-01-08 05:00:00 8.9 12 Noroeste 17 Noroeste 0 -- -- 79
2020-01-08 04:00:00 9.1 12 Norte 17 Noroeste 0 -- -- 81
2020-01-08 03:00:00 9.3 12 Noroeste 17 Noroeste 0 -- -- 81
2020-01-08 02:00:00 9.5 12 Norte 17 Norte 0 -- -- 83
2020-01-08 01:00:00 9.9 12 Norte 17 Norte 0 -- -- 86
2020-01-08 00:00:00 10.1 11 Norte 18 Norte 0 -- -- 87
2020-01-07 23:00:00 10.4 11 Norte 15 Norte 0 -- -- 87
2020-01-07 22:00:00 10.8 10 Norte 13 Norte 0 -- -- 87
2020-01-07 21:00:00 11.3 9 Norte 14 Norte 0 -- -- 87
2020-01-07 20:00:00 11.9 9 Noroeste 12 Norte 0 -- -- 85
2020-01-07 19:00:00 13.7 5 Nordeste 8 Este 0 -- -- 81
2020-01-07 18:00:00 14.9 6 Este 10 Este 0 -- -- 76
2020-01-07 17:00:00 15.2 6 Este 10 Este 0 -- -- 73
2020-01-07 16:00:00 15.4 6 Sudeste 9 Sudeste 0 -- -- 73
2020-01-07 15:00:00 15.2 6 Sudeste 10 Este 0 -- -- 73
2020-01-07 14:00:00 15 6 Sudeste 10 Sudeste 0 -- -- 73
2020-01-07 13:00:00 14.9 6 Sudeste 11 Este 0 -- -- 73
2020-01-07 12:00:00 15.1 8 Este 11 Sudeste 0 -- -- 71
2020-01-07 11:00:00 15.3 5 Norte 12 Norte 0 -- -- 63
2020-01-07 10:00:00 12.1 9 Norte 18 Noroeste 0 -- -- 71
2020-01-07 09:00:00 9.5 13 Norte 18 Noroeste 0 -- -- 80
2020-01-07 08:00:00 9.1 12 Norte 18 Norte 0 -- -- 82
2020-01-07 07:00:00 9.4 12 Norte 18 Norte 0 -- -- 82
2020-01-07 06:00:00 9.4 11 Norte 17 Norte 0 -- -- 82
2020-01-07 05:00:00 9.3 13 Norte 18 Norte 0 -- -- 82
2020-01-07 04:00:00 9.3 14 Norte 19 Noroeste 0 -- -- 82
2020-01-07 03:00:00 9.5 12 Noroeste 18 Noroeste 0 -- -- 83
2020-01-07 02:00:00 9.8 13 Noroeste 18 Norte 0 -- -- 83
2020-01-07 01:00:00 10 13 Norte 17 Noroeste 0 -- -- 83
2020-01-07 00:00:00 10.1 13 Norte 19 Norte 0 -- -- 83
2020-01-06 23:00:00 10.3 12 Norte 16 Norte 0 -- -- 84
2020-01-06 22:00:00 10.7 10 Noroeste 15 Noroeste 0 -- -- 83
2020-01-06 21:00:00 11.1 10 Noroeste 15 Norte 0 -- -- 83
2020-01-06 20:00:00 11.8 9 Norte 15 Noroeste 0 -- -- 82
2020-01-06 19:00:00 13.9 8 Nordeste 11 Nordeste 0 -- -- 78
2020-01-06 18:00:00 14.5 9 Este 14 Sudeste 0 -- -- 75
2020-01-06 17:00:00 14.9 11 Este 18 Este 0 -- -- 71
2020-01-06 16:00:00 15.1 12 Este 21 Este 0 -- -- 70
2020-01-06 15:00:00 15.1 13 Este 20 Este 0 -- -- 68
2020-01-06 14:00:00 14.9 18 Este 22 Este 0 -- -- 69
2020-01-06 13:00:00 15.2 15 Este 20 Este 0 -- -- 67
2020-01-06 12:00:00 16.3 10 Este 21 Nordeste 0 -- -- 60
2020-01-06 11:00:00 15.3 15 Nordeste 21 Nordeste 0 -- -- 65
2020-01-06 10:00:00 12.9 10 Norte 17 Norte 0 -- -- 66